sensor_id;sensor_type;location;lat;lon;timestamp;temperature;humidity
5196;DHT22;2617;51.006;12.436;2023-02-08T00:01:29;-7.90;99.90
5196;DHT22;2617;51.006;12.436;2023-02-08T00:06:32;-8.00;99.90
5196;DHT22;2617;51.006;12.436;2023-02-08T00:11:34;-8.10;99.90
5196;DHT22;2617;51.006;12.436;2023-02-08T00:16:37;-8.30;99.90
5196;DHT22;2617;51.006;12.436;2023-02-08T00:21:40;-8.30;99.90
5196;DHT22;2617;51.006;12.436;2023-02-08T00:26:42;-8.30;99.90
5196;DHT22;2617;51.006;12.436;2023-02-08T00:31:44;-8.30;99.90
5196;DHT22;2617;51.006;12.436;2023-02-08T00:36:47;-8.30;99.90
5196;DHT22;2617;51.006;12.436;2023-02-08T00:41:50;-8.30;99.90
5196;DHT22;2617;51.006;12.436;2023-02-08T00:46:52;-8.40;99.90
5196;DHT22;2617;51.006;12.436;2023-02-08T00:51:55;-8.40;99.90
5196;DHT22;2617;51.006;12.436;2023-02-08T00:56:57;-8.50;99.90
5196;DHT22;2617;51.006;12.436;2023-02-08T01:02:01;-8.60;99.90
5196;DHT22;2617;51.006;12.436;2023-02-08T01:07:03;-8.70;99.90
5196;DHT22;2617;51.006;12.436;2023-02-08T01:12:06;-8.80;99.90
5196;DHT22;2617;51.006;12.436;2023-02-08T01:17:08;-8.80;99.90
5196;DHT22;2617;51.006;12.436;2023-02-08T01:22:11;-8.90;99.90
5196;DHT22;2617;51.006;12.436;2023-02-08T01:27:13;-9.00;99.90
5196;DHT22;2617;51.006;12.436;2023-02-08T01:32:16;-9.00;99.90
5196;DHT22;2617;51.006;12.436;2023-02-08T01:37:18;-9.10;99.90
5196;DHT22;2617;51.006;12.436;2023-02-08T01:42:20;-9.10;99.90
5196;DHT22;2617;51.006;12.436;2023-02-08T01:47:23;-9.20;99.90
5196;DHT22;2617;51.006;12.436;2023-02-08T01:52:25;-9.20;99.90
5196;DHT22;2617;51.006;12.436;2023-02-08T01:57:28;-9.20;99.90
5196;DHT22;2617;51.006;12.436;2023-02-08T02:02:32;-9.30;99.90
5196;DHT22;2617;51.006;12.436;2023-02-08T02:07:35;-9.30;99.90
5196;DHT22;2617;51.006;12.436;2023-02-08T02:12:37;-9.40;99.90
5196;DHT22;2617;51.006;12.436;2023-02-08T02:17:40;-9.40;99.90
5196;DHT22;2617;51.006;12.436;2023-02-08T02:28:36;-9.50;99.90
5196;DHT22;2617;51.006;12.436;2023-02-08T02:33:42;-9.60;99.90
5196;DHT22;2617;51.006;12.436;2023-02-08T02:44:24;-9.60;99.90
5196;DHT22;2617;51.006;12.436;2023-02-08T02:49:32;-9.70;99.90
5196;DHT22;2617;51.006;12.436;2023-02-08T02:54:45;-9.70;99.90
5196;DHT22;2617;51.006;12.436;2023-02-08T02:59:47;-9.80;99.90
5196;DHT22;2617;51.006;12.436;2023-02-08T03:04:51;-9.80;99.90
5196;DHT22;2617;51.006;12.436;2023-02-08T03:10:06;-9.90;99.90
5196;DHT22;2617;51.006;12.436;2023-02-08T03:20:46;-10.00;99.90
5196;DHT22;2617;51.006;12.436;2023-02-08T03:25:49;-10.00;99.90
5196;DHT22;2617;51.006;12.436;2023-02-08T03:30:54;-10.00;99.90
5196;DHT22;2617;51.006;12.436;2023-02-08T03:41:24;-10.10;99.90
5196;DHT22;2617;51.006;12.436;2023-02-08T03:46:29;-10.10;99.90
5196;DHT22;2617;51.006;12.436;2023-02-08T03:51:33;-10.10;99.90
5196;DHT22;2617;51.006;12.436;2023-02-08T03:56:43;-10.10;99.90
5196;DHT22;2617;51.006;12.436;2023-02-08T04:01:48;-10.10;99.90
5196;DHT22;2617;51.006;12.436;2023-02-08T04:06:50;-10.20;99.90
5196;DHT22;2617;51.006;12.436;2023-02-08T04:11:52;-10.20;99.90
5196;DHT22;2617;51.006;12.436;2023-02-08T04:16:55;-10.20;99.90
5196;DHT22;2617;51.006;12.436;2023-02-08T04:21:58;-10.30;99.90
5196;DHT22;2617;51.006;12.436;2023-02-08T04:27:00;-10.30;99.90
5196;DHT22;2617;51.006;12.436;2023-02-08T04:32:03;-10.30;99.90
5196;DHT22;2617;51.006;12.436;2023-02-08T04:37:06;-10.40;99.90
5196;DHT22;2617;51.006;12.436;2023-02-08T04:42:09;-10.40;99.90
5196;DHT22;2617;51.006;12.436;2023-02-08T04:47:11;-10.50;99.90
5196;DHT22;2617;51.006;12.436;2023-02-08T04:52:14;-10.40;99.90
5196;DHT22;2617;51.006;12.436;2023-02-08T04:57:16;-10.40;99.90
5196;DHT22;2617;51.006;12.436;2023-02-08T05:02:18;-10.50;99.90
5196;DHT22;2617;51.006;12.436;2023-02-08T05:07:21;-10.50;99.90
5196;DHT22;2617;51.006;12.436;2023-02-08T05:12:23;-10.50;99.90
5196;DHT22;2617;51.006;12.436;2023-02-08T05:17:26;-10.50;99.90
5196;DHT22;2617;51.006;12.436;2023-02-08T05:22:30;-10.60;99.90
5196;DHT22;2617;51.006;12.436;2023-02-08T05:27:32;-10.50;99.90
5196;DHT22;2617;51.006;12.436;2023-02-08T05:32:34;-10.60;99.90
5196;DHT22;2617;51.006;12.436;2023-02-08T05:37:36;-10.60;99.90
5196;DHT22;2617;51.006;12.436;2023-02-08T05:42:39;-10.60;99.90
5196;DHT22;2617;51.006;12.436;2023-02-08T05:47:41;-10.70;99.90
5196;DHT22;2617;51.006;12.436;2023-02-08T05:52:44;-10.70;99.90
5196;DHT22;2617;51.006;12.436;2023-02-08T05:57:47;-10.80;99.90
5196;DHT22;2617;51.006;12.436;2023-02-08T06:02:49;-10.80;99.90
5196;DHT22;2617;51.006;12.436;2023-02-08T06:07:52;-10.80;99.90
5196;DHT22;2617;51.006;12.436;2023-02-08T06:12:54;-10.80;99.90
5196;DHT22;2617;51.006;12.436;2023-02-08T06:17:56;-10.80;99.90
5196;DHT22;2617;51.006;12.436;2023-02-08T06:22:59;-10.80;99.90
5196;DHT22;2617;51.006;12.436;2023-02-08T06:28:01;-10.80;99.90
5196;DHT22;2617;51.006;12.436;2023-02-08T06:33:04;-10.80;99.90
5196;DHT22;2617;51.006;12.436;2023-02-08T06:38:06;-10.80;99.90
5196;DHT22;2617;51.006;12.436;2023-02-08T06:43:10;-10.80;99.90
5196;DHT22;2617;51.006;12.436;2023-02-08T06:48:12;-10.80;99.90
5196;DHT22;2617;51.006;12.436;2023-02-08T06:53:14;-10.80;99.90
5196;DHT22;2617;51.006;12.436;2023-02-08T06:58:17;-10.70;99.90
5196;DHT22;2617;51.006;12.436;2023-02-08T07:03:19;-10.50;99.90
5196;DHT22;2617;51.006;12.436;2023-02-08T07:08:22;-10.20;99.90
5196;DHT22;2617;51.006;12.436;2023-02-08T07:13:26;-10.00;99.90
5196;DHT22;2617;51.006;12.436;2023-02-08T07:18:28;-10.00;99.90
5196;DHT22;2617;51.006;12.436;2023-02-08T07:23:32;-9.90;99.90
5196;DHT22;2617;51.006;12.436;2023-02-08T07:28:34;-9.60;99.90
5196;DHT22;2617;51.006;12.436;2023-02-08T07:33:37;-9.40;99.90
5196;DHT22;2617;51.006;12.436;2023-02-08T07:38:39;-9.10;99.90
5196;DHT22;2617;51.006;12.436;2023-02-08T07:43:42;-8.90;99.90
5196;DHT22;2617;51.006;12.436;2023-02-08T07:48:44;-8.60;99.90
5196;DHT22;2617;51.006;12.436;2023-02-08T07:53:47;-8.30;99.90
5196;DHT22;2617;51.006;12.436;2023-02-08T07:58:49;-8.10;99.90
5196;DHT22;2617;51.006;12.436;2023-02-08T08:03:51;-7.90;99.90
5196;DHT22;2617;51.006;12.436;2023-02-08T08:08:54;-7.70;99.90
5196;DHT22;2617;51.006;12.436;2023-02-08T08:13:56;-7.70;99.90
5196;DHT22;2617;51.006;12.436;2023-02-08T08:18:59;-7.50;99.90
5196;DHT22;2617;51.006;12.436;2023-02-08T08:24:02;-7.60;99.90
5196;DHT22;2617;51.006;12.436;2023-02-08T08:29:05;-7.20;99.90
5196;DHT22;2617;51.006;12.436;2023-02-08T08:34:07;-6.90;99.90
5196;DHT22;2617;51.006;12.436;2023-02-08T08:39:10;-6.30;99.90
5196;DHT22;2617;51.006;12.436;2023-02-08T08:44:13;-6.30;99.90
5196;DHT22;2617;51.006;12.436;2023-02-08T08:49:15;-6.00;99.90
5196;DHT22;2617;51.006;12.436;2023-02-08T08:54:19;-5.60;99.90
5196;DHT22;2617;51.006;12.436;2023-02-08T08:59:21;-5.60;99.90
5196;DHT22;2617;51.006;12.436;2023-02-08T09:04:24;-5.30;99.90
5196;DHT22;2617;51.006;12.436;2023-02-08T09:09:26;-5.20;99.90
5196;DHT22;2617;51.006;12.436;2023-02-08T09:14:28;-5.00;99.90
5196;DHT22;2617;51.006;12.436;2023-02-08T09:19:31;-4.70;99.90
5196;DHT22;2617;51.006;12.436;2023-02-08T09:24:34;-4.50;99.90
5196;DHT22;2617;51.006;12.436;2023-02-08T09:29:36;-4.20;99.90
5196;DHT22;2617;51.006;12.436;2023-02-08T09:34:38;-4.00;99.90
5196;DHT22;2617;51.006;12.436;2023-02-08T09:39:41;-3.80;99.90
5196;DHT22;2617;51.006;12.436;2023-02-08T09:44:55;-3.70;99.90
5196;DHT22;2617;51.006;12.436;2023-02-08T09:50:18;-3.60;99.90
5196;DHT22;2617;51.006;12.436;2023-02-08T09:55:38;-3.40;99.90
5196;DHT22;2617;51.006;12.436;2023-02-08T10:00:43;-3.20;99.90
5196;DHT22;2617;51.006;12.436;2023-02-08T10:05:45;-2.90;99.90
5196;DHT22;2617;51.006;12.436;2023-02-08T10:16:36;-2.80;99.90
5196;DHT22;2617;51.006;12.436;2023-02-08T10:22:02;-2.60;99.90
5196;DHT22;2617;51.006;12.436;2023-02-08T10:27:10;-2.60;99.90
5196;DHT22;2617;51.006;12.436;2023-02-08T10:32:14;-2.40;99.90
5196;DHT22;2617;51.006;12.436;2023-02-08T10:37:18;-2.00;99.90
5196;DHT22;2617;51.006;12.436;2023-02-08T10:42:21;-2.10;99.90
5196;DHT22;2617;51.006;12.436;2023-02-08T10:47:43;-2.00;99.90
5196;DHT22;2617;51.006;12.436;2023-02-08T10:52:45;-1.80;99.90
5196;DHT22;2617;51.006;12.436;2023-02-08T10:57:49;-1.50;99.90
5196;DHT22;2617;51.006;12.436;2023-02-08T11:02:50;-1.40;99.90
5196;DHT22;2617;51.006;12.436;2023-02-08T11:08:09;-1.30;99.90
5196;DHT22;2617;51.006;12.436;2023-02-08T11:13:20;-1.10;99.90
5196;DHT22;2617;51.006;12.436;2023-02-08T11:18:24;-1.00;99.90
5196;DHT22;2617;51.006;12.436;2023-02-08T11:23:33;-1.10;99.90
5196;DHT22;2617;51.006;12.436;2023-02-08T11:28:37;-1.00;99.90
5196;DHT22;2617;51.006;12.436;2023-02-08T11:33:39;-0.90;99.90
5196;DHT22;2617;51.006;12.436;2023-02-08T11:38:42;-0.60;99.90
5196;DHT22;2617;51.006;12.436;2023-02-08T11:43:56;-0.70;99.90
5196;DHT22;2617;51.006;12.436;2023-02-08T11:48:57;-0.30;99.90
5196;DHT22;2617;51.006;12.436;2023-02-08T11:53:59;-0.40;99.90
5196;DHT22;2617;51.006;12.436;2023-02-08T11:59:19;-0.40;99.90
5196;DHT22;2617;51.006;12.436;2023-02-08T12:04:21;-0.20;99.90
5196;DHT22;2617;51.006;12.436;2023-02-08T12:09:32;-0.20;99.90
5196;DHT22;2617;51.006;12.436;2023-02-08T12:14:44;0.00;99.90
5196;DHT22;2617;51.006;12.436;2023-02-08T12:19:57;0.20;99.90
5196;DHT22;2617;51.006;12.436;2023-02-08T12:30:44;0.50;99.90
5196;DHT22;2617;51.006;12.436;2023-02-08T12:36:09;0.60;99.90
5196;DHT22;2617;51.006;12.436;2023-02-08T12:46:21;0.70;99.90
5196;DHT22;2617;51.006;12.436;2023-02-08T12:56:42;1.00;99.90
5196;DHT22;2617;51.006;12.436;2023-02-08T13:01:45;1.10;99.90
5196;DHT22;2617;51.006;12.436;2023-02-08T13:06:50;1.20;99.90
5196;DHT22;2617;51.006;12.436;2023-02-08T13:17:21;1.50;99.90
5196;DHT22;2617;51.006;12.436;2023-02-08T13:22:22;1.40;99.90
5196;DHT22;2617;51.006;12.436;2023-02-08T13:27:24;1.50;99.90
5196;DHT22;2617;51.006;12.436;2023-02-08T13:32:30;1.50;99.90
5196;DHT22;2617;51.006;12.436;2023-02-08T13:37:32;1.70;99.90
5196;DHT22;2617;51.006;12.436;2023-02-08T13:42:39;2.00;99.90
5196;DHT22;2617;51.006;12.436;2023-02-08T13:47:44;2.20;99.90
5196;DHT22;2617;51.006;12.436;2023-02-08T13:52:46;2.40;99.90
5196;DHT22;2617;51.006;12.436;2023-02-08T13:57:50;2.40;99.90
5196;DHT22;2617;51.006;12.436;2023-02-08T14:03:19;2.40;99.90
5196;DHT22;2617;51.006;12.436;2023-02-08T14:08:38;2.40;99.90
5196;DHT22;2617;51.006;12.436;2023-02-08T14:14:14;2.10;99.90
5196;DHT22;2617;51.006;12.436;2023-02-08T14:19:21;2.20;99.80
5196;DHT22;2617;51.006;12.436;2023-02-08T14:24:27;2.10;99.80
5196;DHT22;2617;51.006;12.436;2023-02-08T14:29:34;2.00;99.50
5196;DHT22;2617;51.006;12.436;2023-02-08T14:34:38;2.00;99.90
5196;DHT22;2617;51.006;12.436;2023-02-08T14:39:40;1.90;99.90
5196;DHT22;2617;51.006;12.436;2023-02-08T14:44:43;1.80;99.90
5196;DHT22;2617;51.006;12.436;2023-02-08T14:49:45;1.70;99.90
5196;DHT22;2617;51.006;12.436;2023-02-08T14:54:58;1.70;99.90
5196;DHT22;2617;51.006;12.436;2023-02-08T15:00:04;1.50;99.90
5196;DHT22;2617;51.006;12.436;2023-02-08T15:05:04;1.40;99.90
5196;DHT22;2617;51.006;12.436;2023-02-08T15:10:12;1.20;99.90
5196;DHT22;2617;51.006;12.436;2023-02-08T15:15:30;1.20;99.90
5196;DHT22;2617;51.006;12.436;2023-02-08T15:20:32;1.00;99.90
5196;DHT22;2617;51.006;12.436;2023-02-08T15:25:35;0.90;99.90
5196;DHT22;2617;51.006;12.436;2023-02-08T15:30:38;0.70;99.90
5196;DHT22;2617;51.006;12.436;2023-02-08T15:35:41;0.20;99.90
5196;DHT22;2617;51.006;12.436;2023-02-08T15:40:57;0.20;99.90
5196;DHT22;2617;51.006;12.436;2023-02-08T15:45:54;0.00;99.90
5196;DHT22;2617;51.006;12.436;2023-02-08T15:50:55;-0.30;99.90
5196;DHT22;2617;51.006;12.436;2023-02-08T15:55:59;-0.40;99.90
5196;DHT22;2617;51.006;12.436;2023-02-08T16:01:01;-0.50;99.90
5196;DHT22;2617;51.006;12.436;2023-02-08T16:06:04;-0.70;99.90
5196;DHT22;2617;51.006;12.436;2023-02-08T16:11:13;-0.90;99.90
5196;DHT22;2617;51.006;12.436;2023-02-08T16:16:21;-1.20;99.90
5196;DHT22;2617;51.006;12.436;2023-02-08T16:21:33;-1.10;99.90
5196;DHT22;2617;51.006;12.436;2023-02-08T16:26:43;-1.30;99.90
5196;DHT22;2617;51.006;12.436;2023-02-08T16:31:55;-1.50;99.90
5196;DHT22;2617;51.006;12.436;2023-02-08T16:37:18;-1.70;99.90
5196;DHT22;2617;51.006;12.436;2023-02-08T16:42:27;-1.70;99.90
5196;DHT22;2617;51.006;12.436;2023-02-08T16:47:35;-1.90;99.90
5196;DHT22;2617;51.006;12.436;2023-02-08T16:52:59;-2.00;99.90
5196;DHT22;2617;51.006;12.436;2023-02-08T16:58:02;-2.10;99.90
5196;DHT22;2617;51.006;12.436;2023-02-08T17:03:04;-2.20;99.90
5196;DHT22;2617;51.006;12.436;2023-02-08T17:08:16;-2.40;99.90
5196;DHT22;2617;51.006;12.436;2023-02-08T17:13:19;-2.50;99.90
5196;DHT22;2617;51.006;12.436;2023-02-08T17:18:21;-2.60;99.90
5196;DHT22;2617;51.006;12.436;2023-02-08T17:23:24;-2.60;99.90
5196;DHT22;2617;51.006;12.436;2023-02-08T17:28:27;-2.70;99.90
5196;DHT22;2617;51.006;12.436;2023-02-08T17:33:29;-2.70;99.90
5196;DHT22;2617;51.006;12.436;2023-02-08T17:38:33;-2.80;99.90
5196;DHT22;2617;51.006;12.436;2023-02-08T17:43:35;-2.80;99.90
5196;DHT22;2617;51.006;12.436;2023-02-08T17:48:39;-2.90;99.90
5196;DHT22;2617;51.006;12.436;2023-02-08T17:53:42;-2.90;99.90
5196;DHT22;2617;51.006;12.436;2023-02-08T17:58:44;-2.90;99.90
5196;DHT22;2617;51.006;12.436;2023-02-08T18:03:48;-3.00;99.90
5196;DHT22;2617;51.006;12.436;2023-02-08T18:08:51;-3.00;99.90
5196;DHT22;2617;51.006;12.436;2023-02-08T18:13:54;-3.10;99.90
5196;DHT22;2617;51.006;12.436;2023-02-08T18:18:57;-3.10;99.90
5196;DHT22;2617;51.006;12.436;2023-02-08T18:24:00;-3.20;99.90
5196;DHT22;2617;51.006;12.436;2023-02-08T18:29:03;-3.20;99.90
5196;DHT22;2617;51.006;12.436;2023-02-08T18:34:05;-3.20;99.90
5196;DHT22;2617;51.006;12.436;2023-02-08T18:39:09;-3.30;99.90
5196;DHT22;2617;51.006;12.436;2023-02-08T18:44:10;-3.30;99.90
5196;DHT22;2617;51.006;12.436;2023-02-08T18:49:13;-3.20;99.90
5196;DHT22;2617;51.006;12.436;2023-02-08T18:54:17;-3.10;99.90
5196;DHT22;2617;51.006;12.436;2023-02-08T18:59:19;-3.20;99.90
5196;DHT22;2617;51.006;12.436;2023-02-08T19:04:21;-3.10;99.90
5196;DHT22;2617;51.006;12.436;2023-02-08T19:09:24;-3.00;99.90
5196;DHT22;2617;51.006;12.436;2023-02-08T19:14:26;-3.00;99.90
5196;DHT22;2617;51.006;12.436;2023-02-08T19:19:29;-3.00;99.90
5196;DHT22;2617;51.006;12.436;2023-02-08T19:24:32;-3.00;99.90
5196;DHT22;2617;51.006;12.436;2023-02-08T19:29:34;-3.20;99.90
5196;DHT22;2617;51.006;12.436;2023-02-08T19:34:37;-3.20;99.90
5196;DHT22;2617;51.006;12.436;2023-02-08T19:39:40;-3.30;99.90
5196;DHT22;2617;51.006;12.436;2023-02-08T19:44:42;-3.40;99.90
5196;DHT22;2617;51.006;12.436;2023-02-08T19:49:45;-3.60;99.90
5196;DHT22;2617;51.006;12.436;2023-02-08T19:54:48;-3.70;99.90
5196;DHT22;2617;51.006;12.436;2023-02-08T19:59:50;-3.80;99.90
5196;DHT22;2617;51.006;12.436;2023-02-08T20:04:52;-3.90;99.90
5196;DHT22;2617;51.006;12.436;2023-02-08T20:09:55;-4.00;99.90
5196;DHT22;2617;51.006;12.436;2023-02-08T20:14:57;-4.20;99.90
5196;DHT22;2617;51.006;12.436;2023-02-08T20:20:00;-4.30;99.90
5196;DHT22;2617;51.006;12.436;2023-02-08T20:25:02;-4.40;99.90
5196;DHT22;2617;51.006;12.436;2023-02-08T20:30:05;-4.50;99.90
5196;DHT22;2617;51.006;12.436;2023-02-08T20:35:08;-4.60;99.90
5196;DHT22;2617;51.006;12.436;2023-02-08T20:40:11;-4.70;99.90
5196;DHT22;2617;51.006;12.436;2023-02-08T20:45:13;-4.90;99.90
5196;DHT22;2617;51.006;12.436;2023-02-08T20:50:15;-4.90;99.90
5196;DHT22;2617;51.006;12.436;2023-02-08T20:55:18;-5.20;99.90
5196;DHT22;2617;51.006;12.436;2023-02-08T21:00:21;-5.20;99.90
5196;DHT22;2617;51.006;12.436;2023-02-08T21:05:24;-5.30;99.90
5196;DHT22;2617;51.006;12.436;2023-02-08T21:10:27;-5.30;99.90
5196;DHT22;2617;51.006;12.436;2023-02-08T21:15:29;-5.30;99.90
5196;DHT22;2617;51.006;12.436;2023-02-08T21:20:31;-5.30;99.90
5196;DHT22;2617;51.006;12.436;2023-02-08T21:25:37;-5.40;99.90
5196;DHT22;2617;51.006;12.436;2023-02-08T21:30:37;-5.40;99.90
5196;DHT22;2617;51.006;12.436;2023-02-08T21:35:41;-5.60;99.90
5196;DHT22;2617;51.006;12.436;2023-02-08T21:40:44;-5.60;99.90
5196;DHT22;2617;51.006;12.436;2023-02-08T21:45:46;-5.60;99.90
5196;DHT22;2617;51.006;12.436;2023-02-08T21:50:49;-5.70;99.90
5196;DHT22;2617;51.006;12.436;2023-02-08T21:55:57;-5.80;99.90
5196;DHT22;2617;51.006;12.436;2023-02-08T22:01:01;-5.80;99.90
5196;DHT22;2617;51.006;12.436;2023-02-08T22:06:03;-5.90;99.90
5196;DHT22;2617;51.006;12.436;2023-02-08T22:11:06;-5.80;99.90
5196;DHT22;2617;51.006;12.436;2023-02-08T22:16:09;-5.80;99.90
5196;DHT22;2617;51.006;12.436;2023-02-08T22:21:11;-5.70;99.90
5196;DHT22;2617;51.006;12.436;2023-02-08T22:26:13;-5.70;99.90
5196;DHT22;2617;51.006;12.436;2023-02-08T22:31:16;-5.80;99.90
5196;DHT22;2617;51.006;12.436;2023-02-08T22:36:19;-5.80;99.90
5196;DHT22;2617;51.006;12.436;2023-02-08T22:41:23;-5.90;99.90
5196;DHT22;2617;51.006;12.436;2023-02-08T22:46:26;-5.90;99.90
5196;DHT22;2617;51.006;12.436;2023-02-08T22:51:28;-6.00;99.90
5196;DHT22;2617;51.006;12.436;2023-02-08T22:56:30;-6.10;99.90
5196;DHT22;2617;51.006;12.436;2023-02-08T23:01:33;-6.20;99.90
5196;DHT22;2617;51.006;12.436;2023-02-08T23:06:35;-6.20;99.90
5196;DHT22;2617;51.006;12.436;2023-02-08T23:11:38;-6.30;99.90
5196;DHT22;2617;51.006;12.436;2023-02-08T23:16:41;-6.40;99.90
5196;DHT22;2617;51.006;12.436;2023-02-08T23:21:44;-6.60;99.90
5196;DHT22;2617;51.006;12.436;2023-02-08T23:26:47;-6.60;99.90
5196;DHT22;2617;51.006;12.436;2023-02-08T23:31:49;-6.60;99.90
5196;DHT22;2617;51.006;12.436;2023-02-08T23:36:52;-6.70;99.90
5196;DHT22;2617;51.006;12.436;2023-02-08T23:41:54;-6.80;99.90
5196;DHT22;2617;51.006;12.436;2023-02-08T23:46:56;-7.00;99.90
5196;DHT22;2617;51.006;12.436;2023-02-08T23:52:00;-7.20;99.90
5196;DHT22;2617;51.006;12.436;2023-02-08T23:57:02;-7.20;99.90
